createdAt,value
2023-03-19T00:02:25.966Z,97354.31
2023-03-19T00:06:28.911Z,97358.28
2023-03-19T00:10:34.719Z,97369.28
2023-03-19T00:14:37.656Z,97376.16
2023-03-19T00:18:42.339Z,97370.22
2023-03-19T00:22:45.269Z,97374.66
2023-03-19T00:26:49.023Z,97376.34
2023-03-19T00:30:51.972Z,97377.06
2023-03-19T00:34:56.825Z,97364.69
2023-03-19T00:38:59.709Z,97363.34
2023-03-19T00:43:03.781Z,97369.78
2023-03-19T00:47:07.389Z,97379.47
2023-03-19T00:51:13.083Z,97373.59
2023-03-19T00:55:16.059Z,97374.19
2023-03-19T00:59:19.362Z,97378.13
2023-03-19T01:03:22.551Z,97361.41
2023-03-19T01:07:27.804Z,97362.66
2023-03-19T01:11:31.006Z,97371.66
2023-03-19T01:15:37.907Z,97362.28
2023-03-19T01:19:41.081Z,97369.34
2023-03-19T01:23:46.087Z,97372.09
2023-03-19T01:27:49.260Z,97372.22
2023-03-19T01:31:52.799Z,97370.59
2023-03-19T01:35:58.065Z,97367.34
2023-03-19T01:40:03.017Z,97369.28
2023-03-19T01:44:27.785Z,97386.00
2023-03-19T01:48:40.397Z,97379.50
2023-03-19T01:52:43.353Z,97369.56
2023-03-19T01:56:51.162Z,97368.22
2023-03-19T02:00:54.519Z,97379.00
2023-03-19T02:05:02.278Z,97381.06
2023-03-19T02:09:05.609Z,97384.34
2023-03-19T02:13:10.375Z,97391.69
2023-03-19T02:17:13.859Z,97389.00
2023-03-19T02:21:19.418Z,97389.69
2023-03-19T02:25:30.028Z,97385.06
2023-03-19T02:29:35.472Z,97375.16
2023-03-19T02:33:38.505Z,97375.56
2023-03-19T02:37:42.176Z,97386.03
2023-03-19T02:41:46.801Z,97397.47
2023-03-19T02:45:51.835Z,97398.69
2023-03-19T02:49:55.107Z,97399.09
2023-03-19T02:53:58.458Z,97399.66
2023-03-19T02:58:01.540Z,97400.97
2023-03-19T03:02:07.187Z,97400.19
2023-03-19T03:06:10.421Z,97403.72
2023-03-19T03:10:14.122Z,97407.13
2023-03-19T03:14:17.116Z,97401.16
2023-03-19T03:18:21.797Z,97392.56
2023-03-19T03:22:24.774Z,97400.47
2023-03-19T03:26:28.129Z,97414.47
2023-03-19T03:30:31.406Z,97421.66
2023-03-19T03:34:37.060Z,97418.69
2023-03-19T03:38:40.725Z,97417.59
2023-03-19T03:42:44.515Z,97421.50
2023-03-19T03:46:48.195Z,97417.03
2023-03-19T03:50:53.270Z,97415.09
2023-03-19T03:54:56.697Z,97431.69
2023-03-19T03:58:59.944Z,97430.28
2023-03-19T04:03:03.319Z,97429.88
2023-03-19T04:07:09.412Z,97431.91
2023-03-19T04:11:12.623Z,97425.38
2023-03-19T04:15:17.147Z,97416.25
2023-03-19T04:19:20.798Z,97420.84
2023-03-19T04:23:25.754Z,97426.00
2023-03-19T04:27:28.849Z,97419.47
2023-03-19T04:31:32.320Z,97434.19
2023-03-19T04:35:35.576Z,97437.56
2023-03-19T04:39:40.450Z,97437.81
2023-03-19T04:43:43.568Z,97422.84
2023-03-19T04:47:47.144Z,97409.78
2023-03-19T04:51:50.250Z,97418.22
2023-03-19T04:55:55.042Z,97431.13
2023-03-19T04:59:58.297Z,97432.06
2023-03-19T05:04:01.977Z,97442.25
2023-03-19T05:08:05.236Z,97441.19
2023-03-19T05:12:10.740Z,97446.34
2023-03-19T05:16:14.119Z,97454.34
2023-03-19T05:20:18.416Z,97470.75
2023-03-19T05:24:21.401Z,97467.63
2023-03-19T05:28:25.975Z,97466.81
2023-03-19T05:32:29.554Z,97471.97
2023-03-19T05:36:33.019Z,97473.34
2023-03-19T05:40:36.163Z,97467.66
2023-03-19T05:44:41.136Z,97474.53
2023-03-19T05:48:44.039Z,97469.38
2023-03-19T05:52:47.492Z,97477.34
2023-03-19T05:56:50.756Z,97486.06
2023-03-19T06:00:58.274Z,97495.63
2023-03-19T06:05:01.342Z,97493.34
2023-03-19T06:09:05.928Z,97490.25
2023-03-19T06:13:09.171Z,97502.50
2023-03-19T06:17:14.172Z,97519.78
2023-03-19T06:21:17.318Z,97531.53
2023-03-19T06:25:20.826Z,97539.13
2023-03-19T06:29:23.757Z,97553.84
2023-03-19T06:33:32.506Z,97555.75
2023-03-19T06:37:35.723Z,97535.56
2023-03-19T06:41:39.305Z,97552.31
2023-03-19T06:45:42.471Z,97546.84
2023-03-19T06:49:47.098Z,97563.03
2023-03-19T06:53:50.554Z,97567.75
2023-03-19T06:57:53.787Z,97582.34
2023-03-19T07:01:57.981Z,97587.94
2023-03-19T07:06:02.428Z,97570.78
2023-03-19T07:10:06.885Z,97575.31
2023-03-19T07:14:10.050Z,97574.03
2023-03-19T07:18:13.288Z,97571.38
2023-03-19T07:22:18.086Z,97575.53
2023-03-19T07:26:21.766Z,97587.53
2023-03-19T07:30:25.197Z,97582.31
2023-03-19T07:34:28.626Z,97585.63
2023-03-19T07:38:33.038Z,97579.22
2023-03-19T07:42:37.260Z,97584.78
2023-03-19T07:46:40.487Z,97578.50
2023-03-19T07:50:44.539Z,97575.13
2023-03-19T07:54:50.392Z,97569.94
2023-03-19T07:58:53.771Z,97575.88
2023-03-19T08:02:56.882Z,97598.50
2023-03-19T08:07:01.120Z,97592.28
2023-03-19T08:11:07.012Z,97593.47
2023-03-19T08:15:12.222Z,97588.34
2023-03-19T08:19:15.392Z,97576.34
2023-03-19T08:23:18.714Z,97582.16
2023-03-19T08:27:23.092Z,97599.69
2023-03-19T08:31:27.849Z,97595.97
2023-03-19T08:35:31.603Z,97592.88
2023-03-19T08:39:35.083Z,97590.38
2023-03-19T08:43:40.349Z,97593.69
2023-03-19T08:47:43.600Z,97587.47
2023-03-19T08:51:47.435Z,97585.28
2023-03-19T08:55:54.243Z,97606.75
2023-03-19T08:59:59.596Z,97603.53
2023-03-19T09:04:02.691Z,97602.78
2023-03-19T09:08:06.529Z,97606.63
2023-03-19T09:12:12.085Z,97608.44
2023-03-19T09:16:16.888Z,97604.53
2023-03-19T09:20:20.381Z,97595.34
2023-03-19T09:24:23.695Z,97601.34
2023-03-19T09:28:27.514Z,97596.13
2023-03-19T09:32:32.578Z,97590.31
2023-03-19T09:36:35.897Z,97603.09
2023-03-19T09:40:42.900Z,97596.63
2023-03-19T09:44:47.628Z,97597.25
2023-03-19T09:48:57.898Z,97590.34
2023-03-19T09:53:05.443Z,97600.06
2023-03-19T09:57:13.218Z,97593.69
2023-03-19T10:01:27.213Z,97592.75
2023-03-19T10:05:43.780Z,97596.38
2023-03-19T10:10:00.193Z,97607.09
2023-03-19T10:14:19.037Z,97595.47
2023-03-19T10:18:26.502Z,97591.19
2023-03-19T10:22:37.465Z,97594.88
2023-03-19T10:26:41.176Z,97594.75
2023-03-19T10:30:48.233Z,97589.88
2023-03-19T10:34:54.285Z,97581.13
2023-03-19T10:38:58.897Z,97578.47
2023-03-19T10:43:14.713Z,97571.19
2023-03-19T10:47:20.359Z,97570.34
2023-03-19T10:51:27.760Z,97568.59
2023-03-19T10:55:33.554Z,97569.75
2023-03-19T10:59:38.862Z,97571.34
2023-03-19T11:03:53.049Z,97578.50
2023-03-19T11:08:01.836Z,97569.28
2023-03-19T11:12:19.865Z,97578.56
2023-03-19T11:16:23.670Z,97568.66
2023-03-19T11:20:32.233Z,97567.16
2023-03-19T11:24:38.928Z,97558.28
2023-03-19T11:28:44.733Z,97552.88
2023-03-19T11:33:17.716Z,97550.34
2023-03-19T11:37:28.650Z,97548.69
2023-03-19T11:41:45.868Z,97537.41
2023-03-19T11:46:02.988Z,97535.91
2023-03-19T11:50:19.755Z,97524.94
2023-03-19T11:54:28.825Z,97518.25
2023-03-19T11:58:52.065Z,97511.53
2023-03-19T12:03:28.752Z,97509.66
2023-03-19T12:07:36.771Z,97505.00
2023-03-19T12:11:50.619Z,97499.94
2023-03-19T12:16:03.114Z,97496.56
2023-03-19T12:20:29.781Z,97503.66
2023-03-19T12:24:48.526Z,97504.28
2023-03-19T12:29:02.812Z,97506.16
2023-03-19T12:33:16.201Z,97503.78
2023-03-19T12:37:27.268Z,97494.38
2023-03-19T12:41:32.792Z,97501.88
2023-03-19T12:45:40.284Z,97505.91
2023-03-19T12:49:49.141Z,97503.84
2023-03-19T12:53:59.839Z,97499.50
2023-03-19T12:58:08.392Z,97496.94
2023-03-19T13:02:23.697Z,97488.78
2023-03-19T13:06:32.549Z,97487.41
2023-03-19T13:10:37.624Z,97489.25
2023-03-19T13:14:56.222Z,97480.28
2023-03-19T13:19:09.395Z,97462.97
2023-03-19T13:23:16.385Z,97475.06
2023-03-19T13:27:23.972Z,97475.53
2023-03-19T13:31:28.498Z,97474.75
2023-03-19T13:35:42.234Z,97465.84
2023-03-19T13:39:48.665Z,97466.91
2023-03-19T13:44:33.823Z,97464.47
2023-03-19T13:48:40.247Z,97448.34
2023-03-19T13:52:52.892Z,97446.81
2023-03-19T13:57:07.089Z,97447.84
2023-03-19T14:01:28.937Z,97447.16
2023-03-19T14:05:38.034Z,97450.13
2023-03-19T14:09:43.516Z,97440.94
2023-03-19T14:13:51.102Z,97444.09
2023-03-19T14:18:03.471Z,97448.50
2023-03-19T14:22:11.872Z,97440.97
2023-03-19T14:26:18.975Z,97448.09
2023-03-19T14:30:32.932Z,97447.53
2023-03-19T14:34:40.609Z,97444.63
2023-03-19T14:38:51.424Z,97446.38
2023-03-19T14:43:07.439Z,97441.25
2023-03-19T14:47:26.449Z,97452.91
2023-03-19T14:51:52.143Z,97446.03
2023-03-19T14:55:56.608Z,97454.16
2023-03-19T15:00:00.847Z,97453.00
2023-03-19T15:04:08.008Z,97457.47
2023-03-19T15:08:14.694Z,97458.84
2023-03-19T15:12:36.159Z,97462.59
2023-03-19T15:16:49.002Z,97464.88
2023-03-19T15:20:54.467Z,97473.22
2023-03-19T15:25:07.666Z,97474.97
2023-03-19T15:29:13.626Z,97474.03
2023-03-19T15:33:37.296Z,97477.56
2023-03-19T15:37:46.745Z,97487.16
2023-03-19T15:41:51.890Z,97481.75
2023-03-19T15:45:56.890Z,97478.19
2023-03-19T15:50:03.986Z,97482.25
2023-03-19T15:54:07.598Z,97481.69
2023-03-19T15:58:14.400Z,97478.69
2023-03-19T16:02:27.485Z,97488.03
2023-03-19T16:06:32.735Z,97486.47
2023-03-19T16:10:42.368Z,97487.31
2023-03-19T16:14:46.610Z,97493.00
2023-03-19T16:18:53.223Z,97500.09
2023-03-19T16:22:58.957Z,97503.13
2023-03-19T16:27:06.067Z,97510.41
2023-03-19T16:31:22.404Z,97522.94
2023-03-19T16:35:28.658Z,97521.50
2023-03-19T16:39:37.490Z,97522.88
2023-03-19T16:43:45.899Z,97537.16
2023-03-19T16:47:50.999Z,97536.25
2023-03-19T16:51:55.431Z,97536.38
2023-03-19T16:56:00.689Z,97539.88
2023-03-19T17:00:04.167Z,97545.03
2023-03-19T17:04:14.101Z,97552.56
2023-03-19T17:08:21.856Z,97556.59
2023-03-19T17:12:25.216Z,97551.00
2023-03-19T17:16:29.293Z,97554.91
2023-03-19T17:20:37.163Z,97548.28
2023-03-19T17:24:41.928Z,97550.13
2023-03-19T17:28:45.955Z,97557.81
2023-03-19T17:32:52.566Z,97562.50
2023-03-19T17:36:58.607Z,97554.94
2023-03-19T17:41:02.956Z,97563.34
2023-03-19T17:45:07.160Z,97566.06
2023-03-19T17:49:19.025Z,97561.56
2023-03-19T17:53:22.791Z,97575.38
2023-03-19T17:57:27.512Z,97569.06
2023-03-19T18:01:31.648Z,97570.59
2023-03-19T18:05:34.774Z,97578.16
2023-03-19T18:09:38.080Z,97571.06
2023-03-19T18:13:43.133Z,97571.59
2023-03-19T18:17:50.480Z,97575.09
2023-03-19T18:21:53.470Z,97583.03
2023-03-19T18:25:56.790Z,97583.09
2023-03-19T18:30:02.705Z,97577.94
2023-03-19T18:34:10.265Z,97586.66
2023-03-19T18:38:22.005Z,97584.13
2023-03-19T18:42:25.273Z,97593.59
2023-03-19T18:46:32.685Z,97591.56
2023-03-19T18:50:36.162Z,97590.59
2023-03-19T18:54:39.561Z,97597.16
2023-03-19T18:58:43.573Z,97596.53
2023-03-19T19:02:48.591Z,97603.75
2023-03-19T19:06:52.365Z,97601.28
2023-03-19T19:10:58.322Z,97603.28
2023-03-19T19:15:06.816Z,97610.66
2023-03-19T19:19:17.688Z,97606.75
2023-03-19T19:23:22.174Z,97610.53
2023-03-19T19:27:27.252Z,97616.13
2023-03-19T19:31:32.721Z,97617.41
2023-03-19T19:35:37.220Z,97622.19
2023-03-19T19:39:40.855Z,97621.88
2023-03-19T19:43:45.821Z,97628.78
2023-03-19T19:47:49.315Z,97613.44
2023-03-19T19:51:53.679Z,97627.03
2023-03-19T19:55:57.189Z,97630.16
2023-03-19T20:00:00.703Z,97625.28
2023-03-19T20:04:06.037Z,97629.22
2023-03-19T20:08:12.365Z,97630.34
2023-03-19T20:12:22.932Z,97631.84
2023-03-19T20:16:27.740Z,97632.50
2023-03-19T20:20:33.547Z,97627.16
2023-03-19T20:24:37.994Z,97639.09
2023-03-19T20:28:42.727Z,97633.72
2023-03-19T20:32:48.317Z,97638.47
2023-03-19T20:36:53.581Z,97641.41
2023-03-19T20:40:59.482Z,97644.81
2023-03-19T20:45:03.269Z,97646.81
2023-03-19T20:49:06.422Z,97643.38
2023-03-19T20:53:09.944Z,97658.88
2023-03-19T20:57:17.561Z,97659.03
2023-03-19T21:01:24.352Z,97663.63
2023-03-19T21:05:34.939Z,97672.72
2023-03-19T21:09:38.360Z,97665.91
2023-03-19T21:13:42.680Z,97671.59
2023-03-19T21:17:46.899Z,97674.03
2023-03-19T21:21:50.071Z,97682.72
2023-03-19T21:25:53.690Z,97680.91
2023-03-19T21:29:58.130Z,97672.13
2023-03-19T21:34:02.042Z,97674.38
2023-03-19T21:38:05.219Z,97678.31
2023-03-19T21:42:09.829Z,97677.00
2023-03-19T21:46:24.115Z,97672.94
2023-03-19T21:50:28.132Z,97680.56
2023-03-19T21:54:31.064Z,97678.59
2023-03-19T21:58:36.663Z,97676.66
2023-03-19T22:02:43.376Z,97685.91
2023-03-19T22:06:47.039Z,97687.38
2023-03-19T22:10:54.282Z,97693.22
2023-03-19T22:14:57.578Z,97691.28
2023-03-19T22:19:02.127Z,97699.72
2023-03-19T22:23:05.657Z,97691.88
2023-03-19T22:27:16.284Z,97688.94
2023-03-19T22:31:19.969Z,97695.75
2023-03-19T22:35:24.693Z,97696.75
2023-03-19T22:39:28.479Z,97702.75
2023-03-19T22:43:34.330Z,97700.66
2023-03-19T22:47:40.199Z,97706.34
2023-03-19T22:51:45.199Z,97699.53
2023-03-19T22:55:48.452Z,97705.91
2023-03-19T22:59:54.274Z,97705.41
2023-03-19T23:03:57.864Z,97704.78
2023-03-19T23:08:05.496Z,97711.16
2023-03-19T23:12:12.755Z,97709.06
2023-03-19T23:16:21.980Z,97709.53
2023-03-19T23:20:27.629Z,97718.69
2023-03-19T23:24:32.419Z,97714.13
2023-03-19T23:28:36.682Z,97720.63
2023-03-19T23:32:39.627Z,97716.75
2023-03-19T23:36:44.154Z,97721.28
2023-03-19T23:40:48.801Z,97724.25
2023-03-19T23:44:53.565Z,97718.41
2023-03-19T23:48:57.652Z,97718.06
2023-03-19T23:53:01.723Z,97721.00
2023-03-19T23:57:08.796Z,97726.88
